Austin, TX (78725)

4:43 AM CDT on August 30, 2016 (GMT -0500)
Chaparral Crossing | | Change Station

Elev 440 ft 30.24 °N, 97.57 °W | Updated 17 seconds ago

Scattered Clouds
Scattered Clouds
73.6 °F
Feels Like 75 °F
N
0.2
Wind Variable Wind from WNW
Gusts 2.5 mph

Today
High -- | Low -- °F
--% Chance of Precip.
Yesterday
High -- | Low -- °F
Precip. -- in
Pressure 29.96 in
Visibility 10.0 miles
Clouds Few 1100 ft
Scattered Clouds 4000 ft
Heat Index 75 °F
Dew Point 65 °F
Humidity 75%
Rainfall 0.00 in
Snow Depth Not available.
7:06 AM 7:54 PM
Waning Crescent, 4% visible
METAR KAUS 300853Z 03006KT 10SM FEW011 SCT040 24/23 A2999 RMK AO2 SLP145 T02390228 58005
Pressure 29.96 in
Visibility 10.0 miles
Clouds Few 1100 ft
Scattered Clouds 4000 ft
Heat Index 75 °F
Dew Point 65 °F
Humidity 75%
Rainfall 0.00 in
Snow Depth Not available.
7:06 AM 7:54 PM
Waning Crescent, 4% visible
METAR KAUS 300853Z 03006KT 10SM FEW011 SCT040 24/23 A2999 RMK AO2 SLP145 T02390228 58005

10-Day Weather Forecast

Almanac

Astronomy

Aug. 30, 2016 Rise Set
Actual Time
Civil Twilight
Nautical Twilight
Astronomical Twilight
Moon
Length of Visible Light
Length of Day
Tomorrow will be .
, % of the Moon is Illuminated

Today's Extremes

State Highs State Lows

Community

WunderPhotos

Upload Photos

1,935,795 photos uploaded!

WunderBlog® & News

Nearby

Air Quality

  Air Quality AQ Index Pollutant
Not available.

Snow Depth

Station Depth Elevation

Earthquake Activity

City Distance Mag. Time & Date
Minimum magnitude displayed is 2.5.

Coastal Water Temperatures

Place Temperature

Stations

Nearby Weather Stations

Station Location Temp. Windchill Dew Point Humidity Wind Precip. Elev Updated Type
                   

Watches & Warnings

There are currently no watches in effect.